sensor_id;sensor_type;location;lat;lon;timestamp;pressure;altitude;pressure_sealevel;temperature;humidity
46782;BME280;32541;46.298;11.506;2024-03-08T00:00:11;89206.09;;;3.14;100.00
46782;BME280;32541;46.298;11.506;2024-03-08T00:02:43;89201.53;;;3.09;100.00
46782;BME280;32541;46.298;11.506;2024-03-08T00:05:08;89196.84;;;3.10;100.00
46782;BME280;32541;46.298;11.506;2024-03-08T00:07:35;89198.31;;;3.11;100.00
46782;BME280;32541;46.298;11.506;2024-03-08T00:10:04;89192.88;;;3.11;100.00
46782;BME280;32541;46.298;11.506;2024-03-08T00:12:30;89190.69;;;3.09;100.00
46782;BME280;32541;46.298;11.506;2024-03-08T00:14:56;89201.53;;;3.09;100.00
46782;BME280;32541;46.298;11.506;2024-03-08T00:17:21;89198.28;;;3.18;100.00
46782;BME280;32541;46.298;11.506;2024-03-08T00:19:51;89191.44;;;3.17;100.00
46782;BME280;32541;46.298;11.506;2024-03-08T00:22:17;89192.13;;;3.18;100.00
46782;BME280;32541;46.298;11.506;2024-03-08T00:24:42;89193.97;;;3.23;100.00
46782;BME280;32541;46.298;11.506;2024-03-08T00:27:08;89191.06;;;3.13;100.00
46782;BME280;32541;46.298;11.506;2024-03-08T00:29:34;89188.28;;;2.83;100.00
46782;BME280;32541;46.298;11.506;2024-03-08T00:32:00;89187.72;;;2.77;100.00
46782;BME280;32541;46.298;11.506;2024-03-08T00:34:26;89182.34;;;2.92;100.00
46782;BME280;32541;46.298;11.506;2024-03-08T00:36:51;89182.81;;;2.68;100.00
46782;BME280;32541;46.298;11.506;2024-03-08T00:39:18;89178.63;;;2.52;100.00
46782;BME280;32541;46.298;11.506;2024-03-08T00:41:45;89182.59;;;2.43;100.00
46782;BME280;32541;46.298;11.506;2024-03-08T00:44:10;89182.06;;;2.52;100.00
46782;BME280;32541;46.298;11.506;2024-03-08T00:46:35;89179.03;;;2.63;100.00
46782;BME280;32541;46.298;11.506;2024-03-08T00:49:01;89174.69;;;2.68;100.00
46782;BME280;32541;46.298;11.506;2024-03-08T00:51:26;89175.59;;;2.70;100.00
46782;BME280;32541;46.298;11.506;2024-03-08T00:53:52;89172.00;;;2.75;100.00
46782;BME280;32541;46.298;11.506;2024-03-08T00:56:17;89177.59;;;2.77;100.00
46782;BME280;32541;46.298;11.506;2024-03-08T00:58:42;89180.88;;;2.84;100.00
46782;BME280;32541;46.298;11.506;2024-03-08T01:01:08;89170.38;;;2.88;100.00
46782;BME280;32541;46.298;11.506;2024-03-08T01:03:35;89178.88;;;2.92;100.00
46782;BME280;32541;46.298;11.506;2024-03-08T01:06:01;89170.56;;;2.97;100.00
46782;BME280;32541;46.298;11.506;2024-03-08T01:08:27;89175.13;;;3.02;100.00
46782;BME280;32541;46.298;11.506;2024-03-08T01:10:53;89172.19;;;3.00;100.00
46782;BME280;32541;46.298;11.506;2024-03-08T01:13:18;89178.69;;;2.74;100.00
46782;BME280;32541;46.298;11.506;2024-03-08T01:15:45;89160.88;;;2.51;100.00
46782;BME280;32541;46.298;11.506;2024-03-08T01:18:11;89163.59;;;2.51;100.00
46782;BME280;32541;46.298;11.506;2024-03-08T01:20:38;89160.09;;;2.28;100.00
46782;BME280;32541;46.298;11.506;2024-03-08T01:23:05;89160.34;;;2.45;100.00
46782;BME280;32541;46.298;11.506;2024-03-08T01:25:33;89158.47;;;2.24;100.00
46782;BME280;32541;46.298;11.506;2024-03-08T01:27:58;89155.75;;;2.32;100.00
46782;BME280;32541;46.298;11.506;2024-03-08T01:30:23;89153.66;;;2.46;100.00
46782;BME280;32541;46.298;11.506;2024-03-08T01:32:49;89159.44;;;2.50;100.00
46782;BME280;32541;46.298;11.506;2024-03-08T01:35:14;89148.41;;;2.48;100.00
46782;BME280;32541;46.298;11.506;2024-03-08T01:37:39;89154.91;;;2.45;100.00
46782;BME280;32541;46.298;11.506;2024-03-08T01:40:06;89145.84;;;2.42;100.00
46782;BME280;32541;46.298;11.506;2024-03-08T01:42:33;89152.56;;;2.49;100.00
46782;BME280;32541;46.298;11.506;2024-03-08T01:44:59;89144.59;;;2.51;100.00
46782;BME280;32541;46.298;11.506;2024-03-08T01:47:25;89141.72;;;2.49;100.00
46782;BME280;32541;46.298;11.506;2024-03-08T01:49:50;89141.00;;;2.56;100.00
46782;BME280;32541;46.298;11.506;2024-03-08T01:52:17;89138.09;;;2.46;100.00
46782;BME280;32541;46.298;11.506;2024-03-08T01:54:45;89127.94;;;2.32;100.00
46782;BME280;32541;46.298;11.506;2024-03-08T01:57:11;89132.59;;;2.23;100.00
46782;BME280;32541;46.298;11.506;2024-03-08T01:59:37;89131.72;;;2.36;100.00
46782;BME280;32541;46.298;11.506;2024-03-08T02:02:04;89129.91;;;2.31;100.00
46782;BME280;32541;46.298;11.506;2024-03-08T02:04:31;89132.75;;;2.18;100.00
46782;BME280;32541;46.298;11.506;2024-03-08T02:06:57;89132.91;;;2.12;100.00
46782;BME280;32541;46.298;11.506;2024-03-08T02:09:25;89134.09;;;2.40;100.00
46782;BME280;32541;46.298;11.506;2024-03-08T02:11:51;89131.19;;;2.38;100.00
46782;BME280;32541;46.298;11.506;2024-03-08T02:14:19;89120.34;;;2.45;100.00
46782;BME280;32541;46.298;11.506;2024-03-08T02:16:44;89121.81;;;2.46;100.00
46782;BME280;32541;46.298;11.506;2024-03-08T02:19:10;89126.88;;;2.42;100.00
46782;BME280;32541;46.298;11.506;2024-03-08T02:21:35;89125.34;;;2.18;100.00
46782;BME280;32541;46.298;11.506;2024-03-08T02:24:02;89120.66;;;2.19;100.00
46782;BME280;32541;46.298;11.506;2024-03-08T02:26:28;89123.25;;;2.40;100.00
46782;BME280;32541;46.298;11.506;2024-03-08T02:28:53;89120.88;;;2.36;100.00
46782;BME280;32541;46.298;11.506;2024-03-08T02:31:19;89120.28;;;2.15;100.00
46782;BME280;32541;46.298;11.506;2024-03-08T02:33:44;89125.13;;;2.01;100.00
46782;BME280;32541;46.298;11.506;2024-03-08T02:36:12;89126.69;;;1.89;100.00
46782;BME280;32541;46.298;11.506;2024-03-08T02:38:38;89121.06;;;1.87;100.00
46782;BME280;32541;46.298;11.506;2024-03-08T02:41:06;89117.72;;;2.09;100.00
46782;BME280;32541;46.298;11.506;2024-03-08T02:43:31;89120.63;;;2.11;100.00
46782;BME280;32541;46.298;11.506;2024-03-08T02:45:56;89110.81;;;2.01;100.00
46782;BME280;32541;46.298;11.506;2024-03-08T02:48:22;89113.00;;;2.02;100.00
46782;BME280;32541;46.298;11.506;2024-03-08T02:50:48;89117.38;;;2.20;100.00
46782;BME280;32541;46.298;11.506;2024-03-08T02:53:16;89115.41;;;2.21;100.00
46782;BME280;32541;46.298;11.506;2024-03-08T02:55:42;89117.63;;;2.38;100.00
46782;BME280;32541;46.298;11.506;2024-03-08T02:58:07;89122.75;;;1.98;100.00
46782;BME280;32541;46.298;11.506;2024-03-08T03:00:37;89114.72;;;1.77;100.00
46782;BME280;32541;46.298;11.506;2024-03-08T03:03:04;89124.25;;;1.71;100.00
46782;BME280;32541;46.298;11.506;2024-03-08T03:05:30;89115.31;;;1.55;100.00
46782;BME280;32541;46.298;11.506;2024-03-08T03:07:55;89118.06;;;1.62;100.00
46782;BME280;32541;46.298;11.506;2024-03-08T03:10:21;89117.25;;;1.75;100.00
46782;BME280;32541;46.298;11.506;2024-03-08T03:12:48;89106.41;;;1.75;100.00
46782;BME280;32541;46.298;11.506;2024-03-08T03:15:17;89115.97;;;1.76;100.00
46782;BME280;32541;46.298;11.506;2024-03-08T03:17:50;89111.84;;;1.83;100.00
46782;BME280;32541;46.298;11.506;2024-03-08T03:20:17;89112.19;;;1.79;100.00
46782;BME280;32541;46.298;11.506;2024-03-08T03:22:48;89126.69;;;1.25;100.00
46782;BME280;32541;46.298;11.506;2024-03-08T03:25:19;89119.44;;;1.20;100.00
46782;BME280;32541;46.298;11.506;2024-03-08T03:27:50;89123.06;;;1.23;100.00
46782;BME280;32541;46.298;11.506;2024-03-08T03:30:15;89120.59;;;1.32;100.00
46782;BME280;32541;46.298;11.506;2024-03-08T03:32:50;89112.63;;;1.27;100.00
46782;BME280;32541;46.298;11.506;2024-03-08T03:35:17;89110.69;;;1.35;100.00
46782;BME280;32541;46.298;11.506;2024-03-08T03:37:42;89108.72;;;1.35;100.00
46782;BME280;32541;46.298;11.506;2024-03-08T03:40:11;89118.09;;;1.34;100.00
46782;BME280;32541;46.298;11.506;2024-03-08T03:42:38;89112.81;;;1.29;100.00
46782;BME280;32541;46.298;11.506;2024-03-08T03:45:05;89117.75;;;1.38;100.00
46782;BME280;32541;46.298;11.506;2024-03-08T03:47:31;89112.81;;;1.29;100.00
46782;BME280;32541;46.298;11.506;2024-03-08T03:49:56;89121.06;;;1.16;100.00
46782;BME280;32541;46.298;11.506;2024-03-08T03:52:26;89116.97;;;1.30;100.00
46782;BME280;32541;46.298;11.506;2024-03-08T03:54:52;89115.53;;;1.29;100.00
46782;BME280;32541;46.298;11.506;2024-03-08T03:57:17;89115.00;;;1.30;100.00
46782;BME280;32541;46.298;11.506;2024-03-08T03:59:44;89107.59;;;1.31;100.00
46782;BME280;32541;46.298;11.506;2024-03-08T04:02:09;89115.91;;;1.33;100.00
46782;BME280;32541;46.298;11.506;2024-03-08T04:04:35;89116.75;;;1.48;100.00
46782;BME280;32541;46.298;11.506;2024-03-08T04:07:00;89117.66;;;1.51;100.00
46782;BME280;32541;46.298;11.506;2024-03-08T04:09:27;89116.00;;;1.48;100.00
46782;BME280;32541;46.298;11.506;2024-03-08T04:11:52;89118.03;;;1.55;100.00
46782;BME280;32541;46.298;11.506;2024-03-08T04:14:20;89117.59;;;1.43;100.00
46782;BME280;32541;46.298;11.506;2024-03-08T04:16:46;89108.56;;;1.41;100.00
46782;BME280;32541;46.298;11.506;2024-03-08T04:19:13;89112.72;;;1.42;100.00
46782;BME280;32541;46.298;11.506;2024-03-08T04:21:39;89116.34;;;1.44;100.00
46782;BME280;32541;46.298;11.506;2024-03-08T04:24:04;89121.31;;;1.61;100.00
46782;BME280;32541;46.298;11.506;2024-03-08T04:26:31;89115.91;;;1.33;100.00
46782;BME280;32541;46.298;11.506;2024-03-08T04:28:56;89114.41;;;1.52;100.00
46782;BME280;32541;46.298;11.506;2024-03-08T04:31:22;89110.34;;;1.38;100.00
46782;BME280;32541;46.298;11.506;2024-03-08T04:33:47;89115.94;;;1.40;100.00
46782;BME280;32541;46.298;11.506;2024-03-08T04:36:13;89112.66;;;1.34;100.00
46782;BME280;32541;46.298;11.506;2024-03-08T04:38:40;89110.28;;;1.31;100.00
46782;BME280;32541;46.298;11.506;2024-03-08T04:41:06;89105.41;;;1.29;100.00
46782;BME280;32541;46.298;11.506;2024-03-08T04:43:33;89104.34;;;1.32;100.00
46782;BME280;32541;46.298;11.506;2024-03-08T04:45:58;89104.03;;;1.36;100.00
46782;BME280;32541;46.298;11.506;2024-03-08T04:48:23;89107.31;;;1.42;100.00
46782;BME280;32541;46.298;11.506;2024-03-08T04:50:52;89107.09;;;1.40;100.00
46782;BME280;32541;46.298;11.506;2024-03-08T04:53:19;89105.13;;;1.40;100.00
46782;BME280;32541;46.298;11.506;2024-03-08T04:55:45;89108.25;;;1.52;100.00
46782;BME280;32541;46.298;11.506;2024-03-08T04:58:10;89106.75;;;1.72;100.00
46782;BME280;32541;46.298;11.506;2024-03-08T05:00:35;89109.22;;;1.62;100.00
46782;BME280;32541;46.298;11.506;2024-03-08T05:03:01;89109.19;;;1.54;100.00
46782;BME280;32541;46.298;11.506;2024-03-08T05:05:26;89112.00;;;1.41;100.00
46782;BME280;32541;46.298;11.506;2024-03-08T05:07:53;89115.44;;;1.42;100.00
46782;BME280;32541;46.298;11.506;2024-03-08T05:10:19;89120.69;;;1.47;100.00
46782;BME280;32541;46.298;11.506;2024-03-08T05:12:44;89124.34;;;1.57;100.00
46782;BME280;32541;46.298;11.506;2024-03-08T05:15:10;89117.09;;;1.52;100.00
46782;BME280;32541;46.298;11.506;2024-03-08T05:17:35;89117.75;;;1.38;100.00
46782;BME280;32541;46.298;11.506;2024-03-08T05:20:00;89127.34;;;1.39;100.00
46782;BME280;32541;46.298;11.506;2024-03-08T05:22:26;89122.94;;;1.64;100.00
46782;BME280;32541;46.298;11.506;2024-03-08T05:24:51;89118.97;;;1.65;100.00
46782;BME280;32541;46.298;11.506;2024-03-08T05:27:17;89123.44;;;1.55;100.00
46782;BME280;32541;46.298;11.506;2024-03-08T05:29:42;89118.72;;;1.48;100.00
46782;BME280;32541;46.298;11.506;2024-03-08T05:32:08;89118.38;;;1.51;100.00
46782;BME280;32541;46.298;11.506;2024-03-08T05:34:35;89117.31;;;1.54;100.00
46782;BME280;32541;46.298;11.506;2024-03-08T05:37:00;89111.53;;;1.58;100.00
46782;BME280;32541;46.298;11.506;2024-03-08T05:39:26;89119.47;;;1.56;100.00
46782;BME280;32541;46.298;11.506;2024-03-08T05:41:52;89119.09;;;1.52;100.00
46782;BME280;32541;46.298;11.506;2024-03-08T05:44:18;89114.63;;;1.62;100.00
46782;BME280;32541;46.298;11.506;2024-03-08T05:46:43;89109.22;;;1.62;100.00
46782;BME280;32541;46.298;11.506;2024-03-08T05:49:08;89115.69;;;1.59;100.00
46782;BME280;32541;46.298;11.506;2024-03-08T05:51:36;89117.81;;;1.45;100.00
46782;BME280;32541;46.298;11.506;2024-03-08T05:54:12;89122.41;;;1.30;100.00
46782;BME280;32541;46.298;11.506;2024-03-08T05:56:38;89118.72;;;0.91;100.00
46782;BME280;32541;46.298;11.506;2024-03-08T05:59:06;89130.72;;;0.83;100.00
46782;BME280;32541;46.298;11.506;2024-03-08T06:01:31;89124.97;;;0.66;100.00
46782;BME280;32541;46.298;11.506;2024-03-08T06:03:57;89123.47;;;0.78;100.00
46782;BME280;32541;46.298;11.506;2024-03-08T06:06:25;89127.88;;;0.88;100.00
46782;BME280;32541;46.298;11.506;2024-03-08T06:08:51;89123.00;;;0.87;100.00
46782;BME280;32541;46.298;11.506;2024-03-08T06:11:19;89127.66;;;1.07;100.00
46782;BME280;32541;46.298;11.506;2024-03-08T06:13:45;89135.84;;;1.15;100.00
46782;BME280;32541;46.298;11.506;2024-03-08T06:16:10;89134.97;;;1.20;100.00
46782;BME280;32541;46.298;11.506;2024-03-08T06:18:36;89133.03;;;1.28;100.00
46782;BME280;32541;46.298;11.506;2024-03-08T06:21:03;89138.97;;;1.26;100.00
46782;BME280;32541;46.298;11.506;2024-03-08T06:23:30;89142.94;;;1.25;100.00
46782;BME280;32541;46.298;11.506;2024-03-08T06:25:56;89139.91;;;1.29;100.00
46782;BME280;32541;46.298;11.506;2024-03-08T06:28:22;89142.91;;;1.18;100.00
46782;BME280;32541;46.298;11.506;2024-03-08T06:30:48;89137.47;;;1.18;100.00
46782;BME280;32541;46.298;11.506;2024-03-08T06:33:13;89140.59;;;1.22;100.00
46782;BME280;32541;46.298;11.506;2024-03-08T06:35:39;89144.59;;;1.28;100.00
46782;BME280;32541;46.298;11.506;2024-03-08T06:38:04;89145.31;;;1.29;100.00
46782;BME280;32541;46.298;11.506;2024-03-08T06:40:30;89146.97;;;1.32;100.00
46782;BME280;32541;46.298;11.506;2024-03-08T06:42:55;89141.88;;;1.28;100.00
46782;BME280;32541;46.298;11.506;2024-03-08T06:45:20;89142.59;;;1.29;100.00
46782;BME280;32541;46.298;11.506;2024-03-08T06:47:47;89147.53;;;1.38;100.00
46782;BME280;32541;46.298;11.506;2024-03-08T06:50:13;89141.63;;;1.47;100.00
46782;BME280;32541;46.298;11.506;2024-03-08T06:52:40;89147.72;;;1.40;100.00
46782;BME280;32541;46.298;11.506;2024-03-08T06:55:06;89148.47;;;1.40;100.00
46782;BME280;32541;46.298;11.506;2024-03-08T06:57:32;89146.47;;;1.41;100.00
46782;BME280;32541;46.298;11.506;2024-03-08T06:59:57;89151.16;;;1.40;100.00
46782;BME280;32541;46.298;11.506;2024-03-08T07:02:23;89151.13;;;1.33;100.00
46782;BME280;32541;46.298;11.506;2024-03-08T07:04:51;89155.63;;;1.30;100.00
46782;BME280;32541;46.298;11.506;2024-03-08T07:07:18;89150.41;;;1.32;100.00
46782;BME280;32541;46.298;11.506;2024-03-08T07:09:45;89152.78;;;1.36;100.00
46782;BME280;32541;46.298;11.506;2024-03-08T07:12:11;89155.09;;;1.32;100.00
46782;BME280;32541;46.298;11.506;2024-03-08T07:14:38;89153.16;;;1.40;100.00
46782;BME280;32541;46.298;11.506;2024-03-08T07:17:06;89156.91;;;1.37;100.00
46782;BME280;32541;46.298;11.506;2024-03-08T07:19:34;89153.09;;;1.32;100.00
46782;BME280;32541;46.298;11.506;2024-03-08T07:21:59;89155.16;;;1.39;100.00
46782;BME280;32541;46.298;11.506;2024-03-08T07:24:25;89159.34;;;1.48;100.00
46782;BME280;32541;46.298;11.506;2024-03-08T07:27:05;89152.31;;;1.52;100.00
46782;BME280;32541;46.298;11.506;2024-03-08T07:29:33;89158.63;;;1.47;100.00
46782;BME280;32541;46.298;11.506;2024-03-08T07:31:59;89159.53;;;1.50;100.00
46782;BME280;32541;46.298;11.506;2024-03-08T07:34:46;89158.28;;;1.51;100.00
46782;BME280;32541;46.298;11.506;2024-03-08T07:37:12;89159.72;;;1.52;100.00
46782;BME280;32541;46.298;11.506;2024-03-08T07:39:38;89160.31;;;1.58;100.00
46782;BME280;32541;46.298;11.506;2024-03-08T07:42:04;89164.13;;;1.62;100.00
46782;BME280;32541;46.298;11.506;2024-03-08T07:44:30;89163.44;;;1.69;100.00
46782;BME280;32541;46.298;11.506;2024-03-08T07:46:56;89166.56;;;1.81;100.00
46782;BME280;32541;46.298;11.506;2024-03-08T07:49:22;89167.28;;;1.74;100.00
46782;BME280;32541;46.298;11.506;2024-03-08T07:51:47;89159.81;;;1.67;100.00
46782;BME280;32541;46.298;11.506;2024-03-08T07:54:14;89160.78;;;1.49;100.00
46782;BME280;32541;46.298;11.506;2024-03-08T07:56:40;89170.19;;;1.48;100.00
46782;BME280;32541;46.298;11.506;2024-03-08T07:59:05;89165.34;;;1.54;100.00
46782;BME280;32541;46.298;11.506;2024-03-08T08:01:30;89162.28;;;1.57;100.00
46782;BME280;32541;46.298;11.506;2024-03-08T08:03:56;89168.25;;;1.56;100.00
46782;BME280;32541;46.298;11.506;2024-03-08T08:06:22;89164.28;;;1.57;100.00
46782;BME280;32541;46.298;11.506;2024-03-08T08:08:47;89159.78;;;1.59;100.00
46782;BME280;32541;46.298;11.506;2024-03-08T08:11:13;89165.44;;;1.69;100.00
46782;BME280;32541;46.298;11.506;2024-03-08T08:13:41;89161.69;;;1.80;100.00
46782;BME280;32541;46.298;11.506;2024-03-08T08:16:09;89161.72;;;1.87;100.00
46782;BME280;32541;46.298;11.506;2024-03-08T08:18:34;89168.53;;;1.73;100.00
46782;BME280;32541;46.298;11.506;2024-03-08T08:21:00;89165.06;;;1.65;100.00
46782;BME280;32541;46.298;11.506;2024-03-08T08:23:26;89161.63;;;1.64;100.00
46782;BME280;32541;46.298;11.506;2024-03-08T08:25:51;89162.38;;;1.73;100.00
46782;BME280;32541;46.298;11.506;2024-03-08T08:28:17;89160.44;;;1.81;100.00
46782;BME280;32541;46.298;11.506;2024-03-08T08:30:44;89161.72;;;1.87;100.00
46782;BME280;32541;46.298;11.506;2024-03-08T08:33:10;89157.94;;;1.90;100.00
46782;BME280;32541;46.298;11.506;2024-03-08T08:35:38;89163.22;;;1.96;100.00
46782;BME280;32541;46.298;11.506;2024-03-08T08:38:06;89153.81;;;1.97;100.00
46782;BME280;32541;46.298;11.506;2024-03-08T08:40:34;89159.44;;;1.99;100.00
46782;BME280;32541;46.298;11.506;2024-03-08T08:43:01;89144.34;;;2.18;100.00
46782;BME280;32541;46.298;11.506;2024-03-08T08:45:30;89151.06;;;2.25;100.00
46782;BME280;32541;46.298;11.506;2024-03-08T08:47:56;89148.13;;;2.23;100.00
46782;BME280;32541;46.298;11.506;2024-03-08T08:50:22;89159.22;;;2.33;100.00
46782;BME280;32541;46.298;11.506;2024-03-08T08:52:53;89163.38;;;2.41;100.00
46782;BME280;32541;46.298;11.506;2024-03-08T08:55:19;89155.56;;;2.22;100.00
46782;BME280;32541;46.298;11.506;2024-03-08T08:57:47;89159.78;;;2.39;100.00
46782;BME280;32541;46.298;11.506;2024-03-08T09:00:17;89163.78;;;2.45;100.00
46782;BME280;32541;46.298;11.506;2024-03-08T09:02:44;89161.78;;;2.46;100.00
46782;BME280;32541;46.298;11.506;2024-03-08T09:05:10;89161.44;;;2.49;100.00
46782;BME280;32541;46.298;11.506;2024-03-08T09:07:36;89160.88;;;2.43;100.00
46782;BME280;32541;46.298;11.506;2024-03-08T09:10:03;89162.34;;;2.52;100.00
46782;BME280;32541;46.298;11.506;2024-03-08T09:12:28;89161.84;;;2.68;100.00
46782;BME280;32541;46.298;11.506;2024-03-08T09:14:54;89156.06;;;2.72;100.00
46782;BME280;32541;46.298;11.506;2024-03-08T09:17:20;89153.34;;;2.72;100.00
46782;BME280;32541;46.298;11.506;2024-03-08T09:19:49;89148.28;;;2.76;100.00
46782;BME280;32541;46.298;11.506;2024-03-08T09:22:15;89152.78;;;2.73;100.00
46782;BME280;32541;46.298;11.506;2024-03-08T09:24:40;89160.78;;;2.79;100.00
46782;BME280;32541;46.298;11.506;2024-03-08T09:27:07;89165.47;;;2.86;100.00
46782;BME280;32541;46.298;11.506;2024-03-08T09:29:33;89160.38;;;2.67;100.00
46782;BME280;32541;46.298;11.506;2024-03-08T09:31:59;89153.72;;;2.76;100.00
46782;BME280;32541;46.298;11.506;2024-03-08T09:34:24;89152.28;;;2.98;100.00
46782;BME280;32541;46.298;11.506;2024-03-08T09:36:50;89155.53;;;3.04;100.00
46782;BME280;32541;46.298;11.506;2024-03-08T09:39:17;89160.63;;;3.00;100.00
46782;BME280;32541;46.298;11.506;2024-03-08T09:41:44;89156.66;;;3.08;100.00
46782;BME280;32541;46.298;11.506;2024-03-08T09:44:10;89162.00;;;2.63;100.00
46782;BME280;32541;46.298;11.506;2024-03-08T09:46:36;89159.28;;;2.55;100.00
46782;BME280;32541;46.298;11.506;2024-03-08T09:49:01;89159.84;;;2.69;100.00
46782;BME280;32541;46.298;11.506;2024-03-08T09:51:33;89155.34;;;2.79;100.00
46782;BME280;32541;46.298;11.506;2024-03-08T09:54:00;89156.63;;;2.93;100.00
46782;BME280;32541;46.298;11.506;2024-03-08T09:56:25;89164.22;;;2.95;100.00
46782;BME280;32541;46.298;11.506;2024-03-08T09:58:52;89159.53;;;2.95;100.00
46782;BME280;32541;46.298;11.506;2024-03-08T10:01:37;89163.69;;;2.89;100.00
46782;BME280;32541;46.298;11.506;2024-03-08T10:04:04;89163.69;;;2.81;100.00
46782;BME280;32541;46.298;11.506;2024-03-08T10:06:30;89169.97;;;2.61;100.00
46782;BME280;32541;46.298;11.506;2024-03-08T10:08:56;89157.91;;;2.26;100.00
46782;BME280;32541;46.298;11.506;2024-03-08T10:11:22;89163.59;;;2.51;100.00
46782;BME280;32541;46.298;11.506;2024-03-08T10:13:49;89159.47;;;2.57;100.00
46782;BME280;32541;46.298;11.506;2024-03-08T10:16:15;89161.31;;;2.70;100.00
46782;BME280;32541;46.298;11.506;2024-03-08T10:18:42;89158.06;;;2.87;100.00
46782;BME280;32541;46.298;11.506;2024-03-08T10:21:08;89164.59;;;2.99;100.00
46782;BME280;32541;46.298;11.506;2024-03-08T10:23:36;89150.50;;;3.08;100.00
46782;BME280;32541;46.298;11.506;2024-03-08T10:26:20;89154.28;;;3.05;100.00
46782;BME280;32541;46.298;11.506;2024-03-08T10:28:51;89143.41;;;3.12;100.00
46782;BME280;32541;46.298;11.506;2024-03-08T10:31:17;89144.53;;;3.32;100.00
46782;BME280;32541;46.298;11.506;2024-03-08T10:33:44;89141.59;;;3.45;100.00
46782;BME280;32541;46.298;11.506;2024-03-08T10:36:11;89150.47;;;3.61;100.00
46782;BME280;32541;46.298;11.506;2024-03-08T10:38:38;89148.66;;;3.71;100.00
46782;BME280;32541;46.298;11.506;2024-03-08T10:41:10;89149.03;;;3.45;100.00
46782;BME280;32541;46.298;11.506;2024-03-08T10:43:57;89138.69;;;3.58;100.00
46782;BME280;32541;46.298;11.506;2024-03-08T10:49:39;89157.13;;;3.90;100.00
46782;BME280;32541;46.298;11.506;2024-03-08T10:52:11;89156.59;;;3.76;100.00
46782;BME280;32541;46.298;11.506;2024-03-08T10:54:38;89154.81;;;3.64;100.00
46782;BME280;32541;46.298;11.506;2024-03-08T10:57:05;89149.91;;;3.62;100.00
46782;BME280;32541;46.298;11.506;2024-03-08T10:59:31;89157.69;;;3.81;100.00
46782;BME280;32541;46.298;11.506;2024-03-08T11:01:57;89159.88;;;3.82;100.00
46782;BME280;32541;46.298;11.506;2024-03-08T11:04:22;89145.91;;;3.86;100.00
46782;BME280;32541;46.298;11.506;2024-03-08T11:06:50;89148.22;;;3.97;100.00
46782;BME280;32541;46.298;11.506;2024-03-08T11:12:19;89144.31;;;4.23;100.00
46782;BME280;32541;46.298;11.506;2024-03-08T11:14:46;89143.75;;;4.32;100.00
46782;BME280;32541;46.298;11.506;2024-03-08T11:17:14;89132.19;;;4.16;100.00
46782;BME280;32541;46.298;11.506;2024-03-08T11:19:46;89131.84;;;4.12;100.00
46782;BME280;32541;46.298;11.506;2024-03-08T11:22:24;89127.78;;;4.28;100.00
46782;BME280;32541;46.298;11.506;2024-03-08T11:24:52;89132.38;;;4.18;100.00
46782;BME280;32541;46.298;11.506;2024-03-08T11:27:18;89135.88;;;3.96;100.00
46782;BME280;32541;46.298;11.506;2024-03-08T11:29:59;89127.47;;;4.17;100.00
46782;BME280;32541;46.298;11.506;2024-03-08T11:32:27;89125.66;;;4.19;100.00
46782;BME280;32541;46.298;11.506;2024-03-08T11:34:54;89123.44;;;4.25;100.00
46782;BME280;32541;46.298;11.506;2024-03-08T11:37:22;89117.56;;;4.44;100.00
46782;BME280;32541;46.298;11.506;2024-03-08T11:42:14;89111.44;;;4.36;98.34
46782;BME280;32541;46.298;11.506;2024-03-08T11:44:39;89105.06;;;4.41;100.00
46782;BME280;32541;46.298;11.506;2024-03-08T11:47:10;89098.81;;;4.56;100.00
46782;BME280;32541;46.298;11.506;2024-03-08T11:49:36;89087.09;;;4.70;100.00
46782;BME280;32541;46.298;11.506;2024-03-08T11:52:02;89091.97;;;5.04;99.95
46782;BME280;32541;46.298;11.506;2024-03-08T11:54:28;89097.13;;;5.17;98.44
46782;BME280;32541;46.298;11.506;2024-03-08T11:56:56;89108.94;;;4.23;96.82
46782;BME280;32541;46.298;11.506;2024-03-08T11:59:27;89104.06;;;4.21;98.39
46782;BME280;32541;46.298;11.506;2024-03-08T12:02:02;89111.78;;;3.92;98.60
46782;BME280;32541;46.298;11.506;2024-03-08T12:04:29;89101.97;;;3.97;100.00
46782;BME280;32541;46.298;11.506;2024-03-08T12:06:54;89100.38;;;3.94;98.90
46782;BME280;32541;46.298;11.506;2024-03-08T12:09:20;89103.41;;;4.06;100.00
46782;BME280;32541;46.298;11.506;2024-03-08T12:11:50;89095.22;;;4.45;100.00
46782;BME280;32541;46.298;11.506;2024-03-08T12:14:16;89081.19;;;5.14;100.00
46782;BME280;32541;46.298;11.506;2024-03-08T12:16:42;89075.06;;;5.65;100.00
46782;BME280;32541;46.298;11.506;2024-03-08T12:19:08;89076.22;;;5.79;97.33
46782;BME280;32541;46.298;11.506;2024-03-08T12:21:35;89080.09;;;5.93;95.80
46782;BME280;32541;46.298;11.506;2024-03-08T12:24:05;89080.09;;;5.93;92.36
46782;BME280;32541;46.298;11.506;2024-03-08T12:26:35;89073.63;;;5.46;90.37
46782;BME280;32541;46.298;11.506;2024-03-08T12:29:26;89068.66;;;5.52;92.26
46782;BME280;32541;46.298;11.506;2024-03-08T12:31:58;89069.13;;;5.41;88.40
46782;BME280;32541;46.298;11.506;2024-03-08T12:34:26;89067.72;;;5.57;86.00
46782;BME280;32541;46.298;11.506;2024-03-08T12:36:52;89064.19;;;5.82;83.97
46782;BME280;32541;46.298;11.506;2024-03-08T12:39:19;89058.69;;;5.89;84.80
46782;BME280;32541;46.298;11.506;2024-03-08T12:41:52;89058.09;;;6.08;81.81
46782;BME280;32541;46.298;11.506;2024-03-08T12:44:19;89058.72;;;6.16;83.17
46782;BME280;32541;46.298;11.506;2024-03-08T12:46:47;89053.34;;;6.26;85.58
46782;BME280;32541;46.298;11.506;2024-03-08T12:49:13;89055.25;;;6.59;87.77
46782;BME280;32541;46.298;11.506;2024-03-08T12:51:43;89049.09;;;6.15;84.63
46782;BME280;32541;46.298;11.506;2024-03-08T12:54:08;89040.22;;;6.41;86.82
46782;BME280;32541;46.298;11.506;2024-03-08T12:56:35;89040.44;;;6.53;82.72